createdAt,value
2016-09-09T00:00:10.882Z,95.31
2016-09-09T00:01:10.879Z,95.6
2016-09-09T00:02:11.181Z,95.12
2016-09-09T00:03:11.177Z,94.73
2016-09-09T00:04:10.854Z,95.89
2016-09-09T00:05:10.864Z,95.7
2016-09-09T00:06:10.840Z,95.7
2016-09-09T00:07:11.145Z,96.27
2016-09-09T00:08:10.823Z,95.7
2016-09-09T00:09:10.818Z,95.6
2016-09-09T00:10:10.809Z,95.89
2016-09-09T00:11:11.121Z,96.08
2016-09-09T00:12:11.109Z,95.7
2016-09-09T00:13:10.795Z,96.08
2016-09-09T00:14:10.779Z,95.6
2016-09-09T00:15:10.774Z,95.5
2016-09-09T00:16:10.769Z,95.79
2016-09-09T00:17:10.758Z,96.42
2016-09-09T00:18:10.749Z,96.37
2016-09-09T00:19:10.746Z,95.89
2016-09-09T00:20:10.736Z,95.65
2016-09-09T00:21:11.045Z,95.79
2016-09-09T00:22:10.721Z,96.08
2016-09-09T00:23:11.028Z,95.89
2016-09-09T00:24:11.021Z,96.08
2016-09-09T00:25:10.701Z,95.6
2016-09-09T00:26:10.692Z,95.7
2016-09-09T00:27:10.687Z,96.08
2016-09-09T00:28:10.988Z,95.6
2016-09-09T00:29:10.670Z,95.02
2016-09-09T00:30:10.661Z,95.6
2016-09-09T00:31:10.970Z,95.6
2016-09-09T00:32:10.960Z,95.4
2016-09-09T00:33:10.641Z,95.4
2016-09-09T00:34:10.632Z,94.83
2016-09-09T00:35:10.630Z,95.21
2016-09-09T00:36:10.619Z,95.02
2016-09-09T00:37:10.618Z,95.4
2016-09-09T00:38:10.915Z,94.83
2016-09-09T00:39:10.601Z,94.83
2016-09-09T00:40:10.587Z,94.92
2016-09-09T00:41:10.583Z,94.54
2016-09-09T00:42:10.574Z,94.92
2016-09-09T00:43:10.569Z,94.92
2016-09-09T00:44:10.870Z,94.54
2016-09-09T00:45:10.553Z,94.73
2016-09-09T00:46:10.544Z,94.15
2016-09-09T00:47:10.537Z,93.96
2016-09-09T00:48:10.540Z,94.35
2016-09-09T00:49:10.524Z,94.06
2016-09-09T00:50:10.520Z,94.73
2016-09-09T00:51:10.506Z,94.06
2016-09-09T00:52:10.499Z,94.45
2016-09-09T00:53:10.809Z,94.15
2016-09-09T00:54:10.799Z,94.45
2016-09-09T00:55:10.477Z,93.58
2016-09-09T00:56:10.785Z,94.45
2016-09-09T00:57:10.465Z,93.87
2016-09-09T00:58:10.458Z,94.15
2016-09-09T00:59:10.449Z,93.68
2016-09-09T01:00:10.759Z,93.48
2016-09-09T01:01:10.436Z,93.77
2016-09-09T01:02:10.430Z,93.29
2016-09-09T01:03:10.418Z,93.48
2016-09-09T01:04:10.413Z,93.19
2016-09-09T01:05:10.404Z,93.77
2016-09-09T01:06:10.402Z,94.25
2016-09-09T01:07:10.400Z,94.06
2016-09-09T01:08:10.391Z,94.64
2016-09-09T01:09:10.375Z,94.35
2016-09-09T01:10:10.372Z,94.64
2016-09-09T01:11:10.361Z,94.06
2016-09-09T01:12:10.353Z,94.25
2016-09-09T01:13:10.344Z,94.15
2016-09-09T01:14:10.339Z,94.45
2016-09-09T01:15:10.336Z,94.35
2016-09-09T01:16:10.323Z,94.83
2016-09-09T01:17:10.315Z,94.06
2016-09-09T01:18:10.309Z,94.25
2016-09-09T01:19:10.304Z,94.45
2016-09-09T01:20:10.606Z,93.87
2016-09-09T01:21:10.287Z,93.82
2016-09-09T01:22:10.279Z,93.48
2016-09-09T01:23:10.289Z,93.68
2016-09-09T01:24:10.265Z,93.19
2016-09-09T01:25:10.254Z,93.1
2016-09-09T01:26:10.254Z,93.58
2016-09-09T01:27:10.240Z,92.91
2016-09-09T01:28:10.234Z,93.29
2016-09-09T01:29:10.225Z,93.15
2016-09-09T01:30:10.220Z,93.53
2016-09-09T01:31:10.209Z,93.05
2016-09-09T01:32:10.212Z,93.15
2016-09-09T01:33:10.196Z,93.24
2016-09-09T01:34:10.197Z,93.15
2016-09-09T01:35:10.180Z,93.34
2016-09-09T01:36:10.178Z,93.24
2016-09-09T01:37:10.165Z,93.34
2016-09-09T01:38:10.473Z,93.15
2016-09-09T01:39:10.156Z,92.76
2016-09-09T01:40:10.149Z,93.63
2016-09-09T01:41:10.450Z,93.05
2016-09-09T01:42:10.132Z,93.24
2016-09-09T01:43:10.121Z,93.34
2016-09-09T01:44:10.117Z,93.24
2016-09-09T01:45:10.109Z,93.05
2016-09-09T01:46:10.414Z,93.24
2016-09-09T01:47:10.404Z,93.05
2016-09-09T01:48:10.089Z,92.96
2016-09-09T01:49:10.075Z,93.05
2016-09-09T01:50:10.070Z,93.05
2016-09-09T01:51:10.064Z,93.24
2016-09-09T01:52:10.369Z,92.96
2016-09-09T01:53:10.051Z,93.24
2016-09-09T01:54:10.044Z,93.24
2016-09-09T01:55:10.034Z,92.86
2016-09-09T01:56:10.028Z,92.96
2016-09-09T01:57:10.331Z,92.96
2016-09-09T01:58:10.013Z,93.15
2016-09-09T01:59:10.003Z,93.15
2016-09-09T02:00:09.997Z,93.24
2016-09-09T02:01:09.987Z,93.73
2016-09-09T02:02:09.980Z,93.53
2016-09-09T02:03:10.286Z,93.73
2016-09-09T02:04:09.967Z,93.63
2016-09-09T02:05:10.267Z,93.44
2016-09-09T02:06:10.265Z,93.91
2016-09-09T02:07:09.941Z,93.73
2016-09-09T02:08:09.936Z,93.73
2016-09-09T02:09:09.928Z,93.73
2016-09-09T02:10:09.921Z,93.63
2016-09-09T02:11:09.910Z,94.11
2016-09-09T02:12:09.907Z,94.4
2016-09-09T02:13:10.211Z,94.4
2016-09-09T02:14:09.892Z,94.26
2016-09-09T02:15:09.884Z,94.11
2016-09-09T02:16:09.876Z,94.06
2016-09-09T02:17:09.868Z,94.35
2016-09-09T02:18:10.065Z,93.87
2016-09-09T02:19:09.860Z,93.77
2016-09-09T02:20:09.844Z,94.45
2016-09-09T02:21:09.845Z,93.77
2016-09-09T02:22:09.832Z,94.45
2016-09-09T02:23:09.821Z,94.06
2016-09-09T02:24:09.816Z,94.26
2016-09-09T02:25:09.807Z,93.96
2016-09-09T02:26:09.802Z,94.16
2016-09-09T02:27:09.790Z,93.96
2016-09-09T02:28:09.794Z,93.87
2016-09-09T02:29:09.774Z,94.26
2016-09-09T02:30:09.770Z,94.06
2016-09-09T02:31:10.077Z,93.96
2016-09-09T02:32:10.070Z,93.96
2016-09-09T02:33:09.744Z,94.64
2016-09-09T02:34:09.743Z,94.93
2016-09-09T02:35:09.732Z,95.03
2016-09-09T02:36:09.724Z,94.64
2016-09-09T02:37:10.035Z,94.54
2016-09-09T02:38:09.708Z,95.03
2016-09-09T02:39:09.708Z,95.12
2016-09-09T02:40:10.004Z,95.21
2016-09-09T02:41:10.000Z,94.83
2016-09-09T02:42:09.993Z,94.83
2016-09-09T02:43:09.984Z,95.03
2016-09-09T02:44:09.664Z,95.03
2016-09-09T02:45:09.968Z,95.5
2016-09-09T02:46:09.647Z,95.12
2016-09-09T02:47:09.643Z,94.73
2016-09-09T02:48:09.642Z,95.26
2016-09-09T02:49:09.620Z,94.98
2016-09-09T02:50:09.931Z,95.45
2016-09-09T02:51:09.918Z,95.6
2016-09-09T02:52:09.602Z,95.65
2016-09-09T02:53:09.904Z,95.55
2016-09-09T02:54:09.584Z,95.55
2016-09-09T02:55:09.575Z,95.65
2016-09-09T02:56:09.583Z,95.26
2016-09-09T02:57:09.559Z,95.36
2016-09-09T02:58:09.553Z,95.45
2016-09-09T02:59:09.547Z,95.45
2016-09-09T03:00:09.537Z,95.45
2016-09-09T03:01:09.528Z,95.55
2016-09-09T03:02:09.518Z,95.26
2016-09-09T03:03:09.511Z,95.65
2016-09-09T03:04:09.511Z,95.55
2016-09-09T03:05:09.496Z,95.75
2016-09-09T03:06:09.488Z,96.03
2016-09-09T03:07:09.481Z,96.13
2016-09-09T03:08:09.473Z,95.94
2016-09-09T03:09:09.466Z,96.22
2016-09-09T03:10:09.455Z,96.13
2016-09-09T03:11:09.452Z,95.94
2016-09-09T03:12:09.441Z,96.32
2016-09-09T03:13:09.447Z,96.13
2016-09-09T03:14:09.425Z,96.42
2016-09-09T03:15:09.419Z,96.51
2016-09-09T03:16:09.410Z,96.13
2016-09-09T03:17:09.399Z,96.13
2016-09-09T03:18:09.395Z,95.45
2016-09-09T03:19:09.387Z,95.75
2016-09-09T03:20:09.380Z,96.32
2016-09-09T03:21:09.684Z,95.94
2016-09-09T03:22:09.361Z,96.42
2016-09-09T03:23:09.354Z,96.13
2016-09-09T03:24:09.378Z,95.94
2016-09-09T03:25:09.342Z,96.32
2016-09-09T03:26:09.330Z,95.26
2016-09-09T03:27:09.323Z,95.55
2016-09-09T03:28:09.314Z,96.42
2016-09-09T03:29:09.313Z,96.13
2016-09-09T03:30:09.615Z,96.13
2016-09-09T03:31:09.289Z,95.55
2016-09-09T03:32:09.309Z,95.07
2016-09-09T03:33:09.273Z,95.26
2016-09-09T03:34:09.268Z,95.07
2016-09-09T03:35:09.572Z,95.07
2016-09-09T03:36:09.255Z,94.78
2016-09-09T03:37:09.244Z,94.98
2016-09-09T03:38:09.238Z,95.55
2016-09-09T03:39:09.227Z,95.17
2016-09-09T03:40:09.231Z,94.88
2016-09-09T03:41:09.214Z,94.4
2016-09-09T03:42:09.204Z,94.98
2016-09-09T03:43:09.511Z,94.98
2016-09-09T03:44:09.186Z,94.88
2016-09-09T03:45:09.186Z,95.07
2016-09-09T03:46:09.487Z,94.59
2016-09-09T03:47:09.165Z,94.59
2016-09-09T03:48:09.156Z,94.4
2016-09-09T03:49:09.151Z,95.55
2016-09-09T03:50:09.144Z,94.78
2016-09-09T03:51:09.446Z,95.45
2016-09-09T03:52:09.131Z,94.59
2016-09-09T03:53:09.121Z,95.17
2016-09-09T03:54:09.112Z,95.55
2016-09-09T03:55:09.114Z,95.45
2016-09-09T03:56:09.095Z,95.07
2016-09-09T03:57:09.083Z,95.07
2016-09-09T03:58:09.081Z,94.98
2016-09-09T03:59:09.070Z,95.55
2016-09-09T04:00:09.063Z,95.17
2016-09-09T04:01:09.098Z,95.31
2016-09-09T04:02:09.053Z,95.41
2016-09-09T04:03:09.037Z,95.31
2016-09-09T04:04:09.031Z,95.79
2016-09-09T04:05:09.021Z,95.41
2016-09-09T04:06:09.011Z,96.27
2016-09-09T04:07:09.011Z,95.98
2016-09-09T04:08:08.995Z,96.18
2016-09-09T04:09:08.987Z,96.37
2016-09-09T04:10:09.296Z,96.27
2016-09-09T04:11:08.972Z,96.18
2016-09-09T04:12:09.279Z,96.08
2016-09-09T04:13:08.954Z,96.27
2016-09-09T04:14:08.945Z,95.79
2016-09-09T04:15:08.938Z,96.08
2016-09-09T04:16:08.934Z,96.27
2016-09-09T04:17:08.924Z,96.47
2016-09-09T04:18:09.116Z,96.56
2016-09-09T04:19:08.905Z,96.27
2016-09-09T04:20:08.899Z,96.37
2016-09-09T04:21:08.887Z,96.27
2016-09-09T04:22:08.881Z,96.27
2016-09-09T04:23:08.873Z,96.08
2016-09-09T04:24:08.868Z,96.47
2016-09-09T04:25:08.859Z,96.66
2016-09-09T04:26:08.850Z,96.66
2016-09-09T04:27:08.838Z,96.47
2016-09-09T04:28:08.832Z,96.56
2016-09-09T04:29:09.137Z,96.37
2016-09-09T04:30:08.818Z,96.47
2016-09-09T04:31:09.122Z,96.37
2016-09-09T04:32:09.124Z,96.75
2016-09-09T04:33:09.108Z,96.47
2016-09-09T04:34:08.788Z,96.56
2016-09-09T04:35:08.774Z,96.47
2016-09-09T04:36:08.768Z,96.47
2016-09-09T04:37:09.073Z,96.94
2016-09-09T04:38:08.762Z,96.85
2016-09-09T04:39:08.750Z,96.94
2016-09-09T04:40:08.746Z,96.37
2016-09-09T04:41:08.725Z,96.85
2016-09-09T04:42:08.719Z,96.85
2016-09-09T04:43:09.024Z,96.94
2016-09-09T04:44:08.701Z,97.14
2016-09-09T04:45:08.694Z,96.94
2016-09-09T04:46:08.686Z,96.85
2016-09-09T04:47:08.679Z,97.14
2016-09-09T04:48:08.675Z,96.66
2016-09-09T04:49:08.980Z,96.66
2016-09-09T04:50:08.652Z,96.75
2016-09-09T04:51:08.646Z,96.66
2016-09-09T04:52:08.633Z,97.42
2016-09-09T04:53:08.940Z,97.14
2016-09-09T04:54:08.622Z,97.33
2016-09-09T04:55:08.616Z,97.24
2016-09-09T04:56:08.608Z,97.52
2016-09-09T04:57:08.594Z,97.71
2016-09-09T04:58:08.899Z,96.94
2016-09-09T04:59:08.576Z,97.42
2016-09-09T05:00:08.568Z,97.61
2016-09-09T05:01:08.557Z,97.24
2016-09-09T05:02:08.553Z,96.66
2016-09-09T05:03:08.546Z,97.42
2016-09-09T05:04:08.543Z,97.33
2016-09-09T05:05:08.527Z,97.33
2016-09-09T05:06:08.519Z,97.33
2016-09-09T05:07:08.514Z,97.52
2016-09-09T05:08:08.506Z,96.66
2016-09-09T05:09:08.499Z,97.33
2016-09-09T05:10:08.488Z,97.61
2016-09-09T05:11:08.479Z,97.42
2016-09-09T05:12:08.469Z,97.14
2016-09-09T05:13:08.464Z,97.24
2016-09-09T05:14:08.453Z,97.42
2016-09-09T05:15:08.447Z,97.24
2016-09-09T05:16:08.750Z,97.24
2016-09-09T05:17:08.433Z,97.14
2016-09-09T05:18:08.423Z,97.24
2016-09-09T05:19:08.414Z,97.19
2016-09-09T05:20:08.412Z,96.85
2016-09-09T05:21:08.395Z,96.85
2016-09-09T05:22:08.387Z,96.85
2016-09-09T05:23:08.382Z,97.52
2016-09-09T05:24:08.372Z,97.42
2016-09-09T05:25:08.362Z,97.42
2016-09-09T05:26:08.670Z,97.24
2016-09-09T05:27:08.347Z,97.14
2016-09-09T05:28:08.339Z,96.94
2016-09-09T05:29:08.329Z,96.94
2016-09-09T05:30:08.333Z,97.24
2016-09-09T05:31:08.324Z,97.52
2016-09-09T05:32:08.306Z,97.14
2016-09-09T05:33:08.298Z,97.52
2016-09-09T05:34:08.294Z,97.33
2016-09-09T05:35:08.282Z,96.47
2016-09-09T05:36:08.273Z,96.47
2016-09-09T05:37:08.275Z,96.47
2016-09-09T05:38:08.260Z,96.66
2016-09-09T05:39:08.250Z,97.14
2016-09-09T05:40:08.243Z,96.85
2016-09-09T05:41:08.235Z,96.75
2016-09-09T05:42:08.545Z,96.27
2016-09-09T05:43:08.530Z,96.18
2016-09-09T05:44:08.211Z,96.37
2016-09-09T05:45:08.201Z,96.37
2016-09-09T05:46:08.192Z,96.56
2016-09-09T05:47:08.186Z,96.37
2016-09-09T05:48:08.176Z,96.27
2016-09-09T05:49:08.168Z,96.08
2016-09-09T05:50:08.161Z,96.37
2016-09-09T05:51:08.154Z,96.08
2016-09-09T05:52:08.144Z,95.98
2016-09-09T05:53:08.138Z,95.89
2016-09-09T05:54:08.125Z,95.89
2016-09-09T05:55:08.120Z,96.08
2016-09-09T05:56:08.114Z,96.08
2016-09-09T05:57:08.415Z,95.89
2016-09-09T05:58:08.095Z,96.08
2016-09-09T05:59:08.089Z,95.6
2016-09-09T06:00:08.079Z,95.75
2016-09-09T06:01:08.076Z,95.5
2016-09-09T06:02:08.063Z,95.31
2016-09-09T06:03:08.056Z,95.03
2016-09-09T06:04:08.047Z,94.74
2016-09-09T06:05:08.038Z,95.12
2016-09-09T06:06:08.034Z,95.5
2016-09-09T06:07:08.024Z,95.36
2016-09-09T06:08:08.332Z,95.55
2016-09-09T06:09:08.008Z,94.78
2016-09-09T06:10:08.000Z,95.17
2016-09-09T06:11:07.991Z,95.36
2016-09-09T06:12:07.982Z,95.17
2016-09-09T06:13:07.972Z,95.55
2016-09-09T06:14:07.966Z,95.07
2016-09-09T06:15:07.959Z,94.59
2016-09-09T06:16:07.950Z,94.78
2016-09-09T06:17:08.254Z,94.98
2016-09-09T06:18:08.140Z,95.17
2016-09-09T06:19:07.927Z,94.31
2016-09-09T06:20:07.917Z,94.4
2016-09-09T06:21:07.921Z,94.11
2016-09-09T06:22:07.903Z,95.07
2016-09-09T06:23:07.893Z,94.21
2016-09-09T06:24:07.887Z,94.4
2016-09-09T06:25:07.880Z,94.98
2016-09-09T06:26:07.869Z,94.49
2016-09-09T06:27:08.177Z,94.21
2016-09-09T06:28:07.859Z,93.25
2016-09-09T06:29:07.847Z,93.44
2016-09-09T06:30:07.849Z,94.21
2016-09-09T06:31:07.832Z,94.21
2016-09-09T06:32:08.145Z,94.31
2016-09-09T06:33:07.822Z,94.01
2016-09-09T06:34:07.806Z,93.92
2016-09-09T06:35:07.803Z,94.59
2016-09-09T06:36:07.792Z,94.21
2016-09-09T06:37:08.100Z,93.25
2016-09-09T06:38:07.778Z,93.05
2016-09-09T06:39:07.773Z,93.25
2016-09-09T06:40:07.770Z,93.05
2016-09-09T06:41:07.753Z,93.34
2016-09-09T06:42:07.761Z,93.34
2016-09-09T06:43:08.051Z,94.31
2016-09-09T06:44:07.734Z,94.31
2016-09-09T06:45:07.720Z,94.4
2016-09-09T06:46:07.714Z,94.31
2016-09-09T06:47:07.704Z,94.21
2016-09-09T06:48:07.699Z,94.31
2016-09-09T06:49:07.699Z,93.82
2016-09-09T06:50:07.998Z,94.21
2016-09-09T06:51:07.676Z,93.25
2016-09-09T06:52:07.686Z,92.77
2016-09-09T06:53:07.988Z,92.29
2016-09-09T06:54:07.649Z,92.77
2016-09-09T06:55:07.644Z,92.96
2016-09-09T06:56:07.637Z,93.49
2016-09-09T06:57:07.636Z,92.96
2016-09-09T06:58:07.624Z,92.81
2016-09-09T06:59:07.621Z,92.86
2016-09-09T07:00:07.612Z,92.29
2016-09-09T07:01:07.599Z,92.72
2016-09-09T07:02:07.592Z,92.24
2016-09-09T07:03:07.784Z,92.19
2016-09-09T07:04:07.574Z,92.48
2016-09-09T07:05:07.571Z,92.33
2016-09-09T07:06:07.558Z,93.49
2016-09-09T07:07:07.868Z,92.72
2016-09-09T07:08:07.860Z,92.52
2016-09-09T07:09:07.538Z,92.43
2016-09-09T07:10:07.527Z,92.43
2016-09-09T07:11:07.526Z,92.62
2016-09-09T07:12:07.523Z,92.14
2016-09-09T07:13:07.507Z,91.85
2016-09-09T07:14:07.497Z,91.95
2016-09-09T07:15:07.494Z,90.31
2016-09-09T07:16:07.483Z,90.41
2016-09-09T07:17:07.478Z,89.83
2016-09-09T07:18:07.470Z,89.64
2016-09-09T07:19:07.777Z,90.07
2016-09-09T07:20:07.453Z,89.4
2016-09-09T07:21:07.449Z,89.69
2016-09-09T07:22:07.443Z,89.69
2016-09-09T07:23:07.434Z,89.5
2016-09-09T07:24:07.427Z,89.5
2016-09-09T07:25:07.420Z,89.5
2016-09-09T07:26:07.412Z,88.44
2016-09-09T07:27:07.411Z,88.73
2016-09-09T07:28:07.397Z,88.82
2016-09-09T07:29:07.394Z,89.11
2016-09-09T07:30:07.701Z,88.53
2016-09-09T07:31:07.376Z,88.92
2016-09-09T07:32:07.370Z,88.53
2016-09-09T07:33:07.361Z,88.63
2016-09-09T07:34:07.353Z,88.57
2016-09-09T07:35:07.348Z,88.44
2016-09-09T07:36:07.340Z,88.82
2016-09-09T07:37:07.339Z,88.67
2016-09-09T07:38:07.327Z,88.48
2016-09-09T07:39:07.325Z,88.29
2016-09-09T07:40:07.315Z,89.06
2016-09-09T07:41:07.304Z,88
2016-09-09T07:42:07.299Z,88
2016-09-09T07:43:07.291Z,88.1
2016-09-09T07:44:07.287Z,88.1
2016-09-09T07:45:07.276Z,87.81
2016-09-09T07:46:07.286Z,88.1
2016-09-09T07:47:07.269Z,88.19
2016-09-09T07:48:07.275Z,88
2016-09-09T07:49:07.251Z,88.48
2016-09-09T07:50:07.243Z,88.57
2016-09-09T07:51:07.234Z,88.19
2016-09-09T07:52:07.227Z,88
2016-09-09T07:53:07.223Z,88.19
2016-09-09T07:54:07.218Z,87.18
2016-09-09T07:55:07.204Z,87.9
2016-09-09T07:56:07.203Z,86.6
2016-09-09T07:57:07.194Z,87.13
2016-09-09T07:58:07.189Z,86.18
2016-09-09T07:59:07.180Z,86.85
2016-09-09T08:00:07.175Z,86.08
2016-09-09T08:01:07.165Z,86.36
2016-09-09T08:02:07.160Z,87.42
2016-09-09T08:03:07.158Z,86.85
2016-09-09T08:04:07.147Z,86.75
2016-09-09T08:05:07.139Z,86.75
2016-09-09T08:06:07.132Z,86.6
2016-09-09T08:07:07.125Z,85.69
2016-09-09T08:08:07.126Z,85.44
2016-09-09T08:09:07.111Z,85.98
2016-09-09T08:10:07.420Z,86.6
2016-09-09T08:11:07.114Z,86.94
2016-09-09T08:12:07.093Z,86.99
2016-09-09T08:13:07.092Z,85.93
2016-09-09T08:14:07.088Z,85.16
2016-09-09T08:15:07.069Z,85.44
2016-09-09T08:16:07.065Z,84.72
2016-09-09T08:17:07.059Z,84.53
2016-09-09T08:18:07.262Z,83.95
2016-09-09T08:19:07.055Z,84.14
2016-09-09T08:20:07.043Z,84.14
2016-09-09T08:21:07.036Z,84.14
2016-09-09T08:22:07.028Z,84.05
2016-09-09T08:23:07.021Z,83.18
2016-09-09T08:24:07.013Z,82.06
2016-09-09T08:25:07.010Z,81.96
2016-09-09T08:26:07.005Z,81.81
2016-09-09T08:27:06.997Z,78.92
2016-09-09T08:28:06.999Z,79.41
2016-09-09T08:29:07.075Z,79.79
2016-09-09T08:30:07.296Z,79.89
2016-09-09T08:31:07.286Z,79.79
2016-09-09T08:32:06.964Z,79.98
2016-09-09T08:33:06.969Z,80.02
2016-09-09T08:34:06.953Z,79.83
2016-09-09T08:35:07.259Z,79.64
2016-09-09T08:36:06.938Z,80.37
2016-09-09T08:37:07.249Z,80.18
2016-09-09T08:38:06.935Z,79.98
2016-09-09T08:39:06.923Z,80.27
2016-09-09T08:40:06.918Z,81.2
2016-09-09T08:41:06.922Z,81.68
2016-09-09T08:42:07.213Z,81.58
2016-09-09T08:43:06.900Z,81.77
2016-09-09T08:44:06.889Z,82.26
2016-09-09T08:45:06.884Z,82.16
2016-09-09T08:46:07.192Z,82.54
2016-09-09T08:47:06.880Z,82.45
2016-09-09T08:48:06.867Z,82.26
2016-09-09T08:49:06.860Z,82.35
2016-09-09T08:50:06.856Z,82.7
2016-09-09T08:51:06.847Z,82.41
2016-09-09T08:52:06.841Z,82.89
2016-09-09T08:53:06.835Z,83.28
2016-09-09T08:54:06.831Z,83.08
2016-09-09T08:55:06.824Z,83.18
2016-09-09T08:56:06.826Z,84.05
2016-09-09T08:57:06.810Z,83.08
2016-09-09T08:58:06.804Z,82.02
2016-09-09T08:59:06.805Z,83.75
2016-09-09T09:00:06.792Z,83.66
2016-09-09T09:01:06.799Z,84.14
2016-09-09T09:02:06.782Z,84.23
2016-09-09T09:03:06.775Z,84.43
2016-09-09T09:04:06.769Z,82.89
2016-09-09T09:05:06.764Z,83.28
2016-09-09T09:06:06.753Z,83.28
2016-09-09T09:07:07.063Z,83.28
2016-09-09T09:08:06.746Z,83.18
2016-09-09T09:09:06.740Z,83.37
2016-09-09T09:10:06.729Z,83.37
2016-09-09T09:11:06.729Z,83.37
2016-09-09T09:12:06.716Z,84.14
2016-09-09T09:13:06.714Z,84.43
2016-09-09T09:14:06.707Z,84.23
2016-09-09T09:15:06.708Z,84.62
2016-09-09T09:16:06.697Z,84.23
2016-09-09T09:17:06.690Z,84.14
2016-09-09T09:18:06.682Z,83.85
2016-09-09T09:19:06.676Z,84.62
2016-09-09T09:20:06.670Z,84.38
2016-09-09T09:21:06.663Z,83.41
2016-09-09T09:22:06.969Z,83.75
2016-09-09T09:23:06.965Z,83.37
2016-09-09T09:24:06.652Z,83.22
2016-09-09T09:25:06.951Z,83.7
2016-09-09T09:26:06.628Z,83.41
2016-09-09T09:27:06.936Z,83.41
2016-09-09T09:28:06.615Z,83.99
2016-09-09T09:29:06.614Z,83.7
2016-09-09T09:30:06.603Z,83.03
2016-09-09T09:31:06.912Z,82.64
2016-09-09T09:32:06.589Z,82.93
2016-09-09T09:33:06.585Z,83.8
2016-09-09T09:34:06.578Z,81.87
2016-09-09T09:35:06.888Z,82.06
2016-09-09T09:36:06.567Z,83.12
2016-09-09T09:37:06.561Z,82.74
2016-09-09T09:38:06.553Z,82.68
2016-09-09T09:39:06.550Z,81.96
2016-09-09T09:40:06.545Z,82.26
2016-09-09T09:41:06.537Z,82.74
2016-09-09T09:42:06.844Z,82.64
2016-09-09T09:43:06.527Z,83.03
2016-09-09T09:44:06.521Z,82.06
2016-09-09T09:45:06.515Z,83.22
2016-09-09T09:46:06.506Z,81.81
2016-09-09T09:47:06.501Z,82.1
2016-09-09T09:48:06.492Z,82.68
2016-09-09T09:49:06.490Z,82.59
2016-09-09T09:50:06.482Z,82.1
2016-09-09T09:51:06.476Z,82.1
2016-09-09T09:52:06.476Z,82.01
2016-09-09T09:53:06.465Z,81.43
2016-09-09T09:54:06.461Z,81.85
2016-09-09T09:55:06.451Z,80.46
2016-09-09T09:56:06.447Z,79.89
2016-09-09T09:57:06.442Z,80.76
2016-09-09T09:58:06.489Z,80.66
2016-09-09T09:59:06.744Z,81.33
2016-09-09T10:00:06.423Z,81.43
2016-09-09T10:01:06.732Z,81.04
2016-09-09T10:02:06.412Z,81.14
2016-09-09T10:03:06.404Z,81.43
2016-09-09T10:04:06.401Z,80.02
2016-09-09T10:05:06.394Z,80.12
2016-09-09T10:06:06.387Z,80.22
2016-09-09T10:07:06.383Z,80.12
2016-09-09T10:08:06.382Z,81.47
2016-09-09T10:09:06.372Z,80.12
2016-09-09T10:10:06.368Z,77.51
2016-09-09T10:11:06.359Z,79.1
2016-09-09T10:12:06.370Z,78.71
2016-09-09T10:13:06.663Z,77.26
2016-09-09T10:14:06.345Z,76.78
2016-09-09T10:15:06.338Z,77.07
2016-09-09T10:16:06.336Z,76.98
2016-09-09T10:17:06.326Z,76.98
2016-09-09T10:18:06.526Z,77.07
2016-09-09T10:19:06.323Z,77.17
2016-09-09T10:20:06.314Z,75.92
2016-09-09T10:21:06.306Z,76.53
2016-09-09T10:22:06.631Z,77.75
2016-09-09T10:23:06.298Z,77.17
2016-09-09T10:24:06.290Z,78.81
2016-09-09T10:25:06.287Z,79.1
2016-09-09T10:26:06.279Z,77.84
2016-09-09T10:27:06.275Z,78.33
2016-09-09T10:28:06.581Z,78.75
2016-09-09T10:29:06.261Z,77.4
2016-09-09T10:30:06.259Z,79.24
2016-09-09T10:31:06.252Z,76.92
2016-09-09T10:32:06.244Z,76.92
2016-09-09T10:33:06.244Z,77.88
2016-09-09T10:34:06.553Z,77.88
2016-09-09T10:35:06.231Z,76.92
2016-09-09T10:36:06.224Z,75.95
2016-09-09T10:37:06.220Z,75.95
2016-09-09T10:38:06.527Z,76.15
2016-09-09T10:39:06.209Z,76.72
2016-09-09T10:40:06.207Z,75.76
2016-09-09T10:41:06.207Z,76.43
2016-09-09T10:42:06.510Z,75.37
2016-09-09T10:43:06.187Z,75.09
2016-09-09T10:44:06.184Z,74.35
2016-09-09T10:45:06.491Z,73.9
2016-09-09T10:46:06.169Z,73.9
2016-09-09T10:47:06.167Z,72.45
2016-09-09T10:48:06.161Z,73.19
2016-09-09T10:49:06.155Z,73.28
2016-09-09T10:50:06.151Z,73.67
2016-09-09T10:51:06.458Z,74.64
2016-09-09T10:52:06.139Z,73.67
2016-09-09T10:53:06.136Z,73.58
2016-09-09T10:54:06.128Z,74.83
2016-09-09T10:55:06.129Z,73.96
2016-09-09T10:56:06.119Z,73.09
2016-09-09T10:57:06.117Z,75.16
2016-09-09T10:58:06.108Z,74
2016-09-09T10:59:06.104Z,72.74
2016-09-09T11:00:06.101Z,72.16
2016-09-09T11:01:06.097Z,69.84
2016-09-09T11:02:06.102Z,71.62
2016-09-09T11:03:06.415Z,69.78
2016-09-09T11:04:06.086Z,67.24
2016-09-09T11:05:06.078Z,66.75
2016-09-09T11:06:06.077Z,66.98
2016-09-09T11:07:06.076Z,64.66
2016-09-09T11:08:06.066Z,62.85
2016-09-09T11:09:06.063Z,62.46
2016-09-09T11:10:06.064Z,62.66
2016-09-09T11:11:06.058Z,62.1
2016-09-09T11:12:06.051Z,60.49
2016-09-09T11:13:06.067Z,60.49
2016-09-09T11:14:06.050Z,60.23
2016-09-09T11:15:06.046Z,59.64
2016-09-09T11:16:06.360Z,59.09
2016-09-09T11:17:06.040Z,57.37
2016-09-09T11:18:06.041Z,56.7
2016-09-09T11:19:06.038Z,56.52
2016-09-09T11:20:06.041Z,57.5
2016-09-09T11:21:06.039Z,56.62
2016-09-09T11:22:06.037Z,54.42
2016-09-09T11:23:06.040Z,56.65
2016-09-09T11:24:06.039Z,55.98
2016-09-09T11:25:06.039Z,55.32
2016-09-09T11:26:06.039Z,55.61
2016-09-09T11:27:06.040Z,54.57
2016-09-09T11:28:06.039Z,53.33
2016-09-09T11:29:06.089Z,50.99
2016-09-09T11:30:06.059Z,51.09
2016-09-09T11:31:06.049Z,51.09
2016-09-09T11:32:06.053Z,53.62
2016-09-09T11:33:06.376Z,52.06
2016-09-09T11:34:06.051Z,49.56
2016-09-09T11:35:06.050Z,48.8
2016-09-09T11:36:06.052Z,47.95
2016-09-09T11:37:06.366Z,49.12
2016-09-09T11:38:06.056Z,47.66
2016-09-09T11:39:06.059Z,47.46
2016-09-09T11:40:06.061Z,46.3
2016-09-09T11:41:06.061Z,48.12
2016-09-09T11:42:06.380Z,47.25
2016-09-09T11:43:06.074Z,46.49
2016-09-09T11:44:06.384Z,46.12
2016-09-09T11:45:06.072Z,46.51
2016-09-09T11:46:06.074Z,45.73
2016-09-09T11:47:06.093Z,46.31
2016-09-09T11:48:06.086Z,44.83
2016-09-09T11:49:06.087Z,44.93
2016-09-09T11:50:06.096Z,46
2016-09-09T11:51:06.411Z,44.15
2016-09-09T11:52:06.402Z,43.68
2016-09-09T11:53:06.097Z,44.85
2016-09-09T11:54:06.408Z,44.56
2016-09-09T11:55:06.104Z,44.46
2016-09-09T11:56:06.098Z,43.39
2016-09-09T11:57:06.103Z,45.15
2016-09-09T11:58:06.107Z,45.64
2016-09-09T11:59:06.107Z,46.41
2016-09-09T12:00:06.114Z,45.26
2016-09-09T12:01:06.114Z,44.21
2016-09-09T12:02:06.432Z,43.53
2016-09-09T12:03:06.137Z,42.38
2016-09-09T12:04:06.436Z,42.99
2016-09-09T12:05:06.447Z,43.49
2016-09-09T12:06:06.129Z,42.71
2016-09-09T12:07:06.130Z,40.88
2016-09-09T12:08:06.133Z,40.97
2016-09-09T12:09:06.145Z,40.01
2016-09-09T12:10:06.138Z,40.97
2016-09-09T12:11:06.148Z,39.9
2016-09-09T12:12:06.154Z,41.17
2016-09-09T12:13:06.155Z,39.43
2016-09-09T12:14:06.155Z,40.03
2016-09-09T12:15:06.162Z,40.03
2016-09-09T12:16:06.166Z,37.71
2016-09-09T12:17:06.165Z,38.12
2016-09-09T12:18:06.375Z,37.81
2016-09-09T12:19:06.173Z,36.16
2016-09-09T12:20:06.189Z,36.16
2016-09-09T12:21:06.185Z,37.41
2016-09-09T12:22:06.185Z,38.37
2016-09-09T12:23:06.191Z,39.33
2016-09-09T12:24:06.193Z,39.78
2016-09-09T12:25:06.508Z,39.49
2016-09-09T12:26:06.194Z,40.66
2016-09-09T12:27:06.196Z,39.98
2016-09-09T12:28:06.519Z,37.65
2016-09-09T12:29:06.531Z,37.26
2016-09-09T12:30:06.215Z,38.53
2016-09-09T12:31:06.221Z,37.57
2016-09-09T12:32:06.531Z,37.19
2016-09-09T12:33:06.541Z,37.79
2016-09-09T12:34:06.220Z,35.76
2016-09-09T12:35:06.226Z,35.97
2016-09-09T12:36:06.227Z,35.6
2016-09-09T12:37:06.241Z,35.8
2016-09-09T12:38:06.235Z,34.81
2016-09-09T12:39:06.241Z,36.18
2016-09-09T12:40:06.266Z,35.97
2016-09-09T12:41:06.245Z,35.37
2016-09-09T12:42:06.250Z,37.02
2016-09-09T12:43:06.249Z,36.35
2016-09-09T12:44:06.264Z,37.12
2016-09-09T12:45:06.271Z,37.41
2016-09-09T12:46:06.267Z,38.39
2016-09-09T12:47:06.266Z,35.08
2016-09-09T12:48:06.269Z,35.86
2016-09-09T12:49:06.591Z,35.58
2016-09-09T12:50:06.594Z,35.49
2016-09-09T12:51:06.284Z,35.99
2016-09-09T12:52:06.287Z,34.52
2016-09-09T12:53:06.290Z,34.42
2016-09-09T12:54:06.297Z,35.41
2016-09-09T12:55:06.294Z,35.31